Historique des stations

Station météo de Orçay

Altitude de la station : 145 m







Données météorologiques pour le 27/01/2022
Date
Heure
Températures Humidité Point de rosée Vitesse
du vent
Direction Rafales Windchill Pression Pluviométrie
Cumul
Date
Heure
Températures Humidité Point de rosée Vitesse
du vent
Direction Rafales Windchill Pression Pluviométrie
Cumul
27/01/2022 09:30-2.1 °C96 %-2.8 °C3 km/hSSE8 km/h-3.3 1037 hPa-
27/01/2022 09:29-2.1 °C96 %-2.8 °C3 km/hS10 km/h-3.3 1037 hPa-
27/01/2022 09:15-2.2 °C96 %-2.8 °C3 km/hSSO8 km/h-3.3 1037 hPa-
27/01/2022 09:14-2.2 °C96 %-2.8 °C3 km/hS10 km/h-3.3 1037 hPa-
27/01/2022 09:00-2.2 °C96 %-2.8 °C2 km/hSSE5 km/h-2.8 1037 hPa-
27/01/2022 08:59-2.3 °C96 %-2.8 °C2 km/hSSE10 km/h-2.8 1037 hPa-
27/01/2022 08:45-2.3 °C96 %-2.8 °C3 km/hSSE8 km/h-3.3 1037 hPa-
27/01/2022 08:44-2.3 °C96 %-2.8 °C3 km/hSSE10 km/h-3.3 1037 hPa-
27/01/2022 08:30-2.4 °C96 %-2.8 °C-ESE3 km/h-2.2 1037 hPa-
27/01/2022 08:29-2.3 °C96 %-2.8 °C2 km/hESE10 km/h-2.8 1037 hPa-
27/01/2022 08:15-2.4 °C96 %-2.8 °C-ESE3 km/h-2.2 1037 hPa-
27/01/2022 08:14-2.4 °C96 %-2.8 °C2 km/hESE10 km/h-2.8 1037 hPa-
27/01/2022 08:00-2.4 °C96 %-2.8 °C-ESE3 km/h-2.2 1036 hPa-
27/01/2022 07:59-2.4 °C96 %-2.8 °C2 km/hESE10 km/h-2.8 1036 hPa-
27/01/2022 07:45-2.5 °C96 %-2.8 °C-NE6 km/h-2.2 1036 hPa-
27/01/2022 07:44-2.5 °C96 %-2.8 °C2 km/hNE10 km/h-2.8 1036 hPa-
27/01/2022 07:30-2.6 °C96 %-3.3 °C2 km/hE5 km/h-3.3 1036 hPa-
27/01/2022 07:29-2.6 °C96 %-3.3 °C2 km/hE8 km/h-3.3 1036 hPa-
27/01/2022 07:15-2.6 °C96 %-3.3 °C3 km/hE3 km/h-3.9 1036 hPa-
27/01/2022 07:14-2.6 °C96 %-3.3 °C-E8 km/h-2.8 1036 hPa-
27/01/2022 07:00-2.6 °C96 %-3.3 °C3 km/hE10 km/h-3.9 1036 hPa-
27/01/2022 06:59-2.6 °C96 %-3.3 °C6 km/hE8 km/h-5.0 1036 hPa-
27/01/2022 06:45-2.6 °C96 %-3.3 °C-E3 km/h-2.8 1036 hPa-
27/01/2022 06:44-2.7 °C96 %-3.3 °C2 km/hE8 km/h-3.3 1036 hPa-
27/01/2022 06:30-2.7 °C96 %-3.3 °C3 km/hNE6 km/h-3.9 1036 hPa-
27/01/2022 06:29-2.6 °C96 %-3.3 °C2 km/hNE8 km/h-3.3 1036 hPa-
27/01/2022 06:15-2.7 °C96 %-3.3 °C-ENE2 km/h-2.8 1036 hPa-
27/01/2022 06:14-2.7 °C96 %-3.3 °C-ENE8 km/h-2.8 1036 hPa-
27/01/2022 06:00-2.7 °C96 %-3.3 °C2 km/hENE5 km/h-3.3 1036 hPa-
27/01/2022 05:59-2.7 °C96 %-3.3 °C2 km/hENE8 km/h-3.3 1036 hPa-
27/01/2022 05:45-2.8 °C96 %-3.3 °C3 km/hN5 km/h-3.9 1036 hPa-
27/01/2022 05:44-2.7 °C96 %-3.3 °C2 km/hE8 km/h-3.3 1036 hPa-
27/01/2022 05:30-2.7 °C96 %-3.3 °C2 km/hE3 km/h-3.3 1036 hPa-
27/01/2022 05:29-2.7 °C96 %-3.3 °C-E8 km/h-2.8 1036 hPa-
27/01/2022 05:15-2.7 °C96 %-3.3 °C-E3 km/h-2.8 1036 hPa-
27/01/2022 05:14-2.7 °C96 %-3.3 °C-E8 km/h-2.8 1036 hPa-
27/01/2022 05:00-2.8 °C96 %-3.3 °C-E3 km/h-2.8 1036 hPa-
27/01/2022 04:59-2.8 °C96 %-3.3 °C-E8 km/h-2.8 1036 hPa-
27/01/2022 04:45-2.8 °C96 %-3.3 °C3 km/hE6 km/h-3.9 1036 hPa-
27/01/2022 04:44-2.8 °C96 %-3.3 °C6 km/hE8 km/h-5.0 1036 hPa-
27/01/2022 04:30-2.8 °C96 %-3.3 °C3 km/hE6 km/h-3.9 1036 hPa-
27/01/2022 04:29-2.8 °C96 %-3.3 °C2 km/hNE8 km/h-3.3 1036 hPa-
27/01/2022 04:15-2.8 °C96 %-3.3 °C2 km/hNE3 km/h-3.3 1036 hPa-
27/01/2022 04:14-2.8 °C96 %-3.3 °C-NE8 km/h-2.8 1036 hPa-
27/01/2022 03:59-2.9 °C96 %-3.3 °C3 km/hNE8 km/h-3.9 1036 hPa-
27/01/2022 03:45-2.8 °C96 %-3.3 °C3 km/hE3 km/h-3.9 1036 hPa-
27/01/2022 03:44-2.8 °C96 %-3.3 °C-E8 km/h-2.8 1036 hPa-
27/01/2022 03:31-2.8 °C96 %-3.3 °C-E6 km/h-2.8 1036 hPa-
27/01/2022 03:29-2.8 °C96 %-3.3 °C-E8 km/h-2.8 1036 hPa-
27/01/2022 03:15-2.8 °C96 %-3.3 °C-E3 km/h-2.8 1036 hPa-
27/01/2022 03:14-2.8 °C96 %-3.3 °C-E8 km/h-2.8 1036 hPa-
27/01/2022 03:00-2.8 °C96 %-3.3 °C3 km/hE5 km/h-3.9 1037 hPa-
27/01/2022 02:59-2.8 °C96 %-3.3 °C3 km/hE8 km/h-3.9 1036 hPa-
27/01/2022 02:45-2.8 °C96 %-3.3 °C-ENE5 km/h-2.8 1037 hPa-
27/01/2022 02:44-2.8 °C96 %-3.3 °C2 km/hENE8 km/h-3.3 1037 hPa-
27/01/2022 02:30-2.8 °C96 %-3.3 °C2 km/hNNE6 km/h-3.3 1037 hPa-
27/01/2022 02:29-2.8 °C96 %-3.3 °C2 km/hNNE6 km/h-3.3 1037 hPa-
27/01/2022 02:15-2.9 °C96 %-3.3 °C3 km/hENE5 km/h-3.9 1037 hPa-
27/01/2022 02:14-2.9 °C96 %-3.3 °C-ENE6 km/h-2.8 1037 hPa-
27/01/2022 02:00-2.9 °C96 %-3.3 °C-ENE2 km/h-2.8 1037 hPa-
27/01/2022 01:59-2.9 °C96 %-3.3 °C-ENE6 km/h-2.8 1037 hPa-
27/01/2022 01:45-3.0 °C96 %-3.3 °C-ENE2 km/h-2.8 1037 hPa-
27/01/2022 01:44-3.0 °C96 %-3.3 °C-ENE6 km/h-2.8 1037 hPa-
27/01/2022 01:31-3.0 °C96 %-3.3 °C-ENE5 km/h-2.8 1037 hPa-
27/01/2022 01:30-3.0 °C96 %-3.3 °C-ENE6 km/h-2.8 1037 hPa-
27/01/2022 01:16-2.9 °C96 %-3.3 °C2 km/hENE6 km/h-3.3 1037 hPa-
27/01/2022 01:15-2.8 °C96 %-3.3 °C3 km/hENE6 km/h-3.9 1037 hPa-
27/01/2022 01:01-2.7 °C96 %-3.3 °C2 km/hSE5 km/h-3.3 1037 hPa-
27/01/2022 01:00-2.8 °C96 %-3.3 °C2 km/hSE6 km/h-3.3 1037 hPa-
27/01/2022 00:46-2.7 °C96 %-3.3 °C-SSE5 km/h-2.8 1037 hPa-
27/01/2022 00:45-2.7 °C96 %-3.3 °C-SSE6 km/h-2.8 1037 hPa-
27/01/2022 00:31-2.6 °C96 %-3.3 °C3 km/hNE5 km/h-3.9 1037 hPa-
27/01/2022 00:30-2.6 °C96 %-3.3 °C2 km/hNE5 km/h-3.3 1037 hPa-
27/01/2022 00:16-2.5 °C96 %-2.8 °C2 km/hE3 km/h-2.8 1037 hPa-
27/01/2022 00:15-2.5 °C96 %-2.8 °C2 km/hE3 km/h-2.8 1037 hPa-
27/01/2022 00:01-2.5 °C96 %-2.8 °C2 km/hE3 km/h-2.8 1037 hPa-
27/01/2022 00:00-2.4 °C96 %-2.8 °C2 km/hE14 km/h-2.8 1037 hPa-


Minima :

Température : -3.0 °C
Humidité : 96 %
Point de rosée : -3.3 °C
Vent moyen : 2 km/h
Windchill : -5.0
Pression atm. : 1036 hPa
Maxima :

Température : -2.1 °C
Humidité : 96 %
Point de rosée : -2.8 °C
Vent moyen : 6 km/h
Windchill : -2.2
Pression atm. : 1037 hPa
Rafales max : 14 km/h
Cumul de pluie sur 24H : 0 mm

Orçay est une commune du département Loir-et-Cher (41).
La station météorologique du réseau de l'association la plus proche de Orçay est celle de Vierzon



Icône Facebook Association Météo Centre Icône Twitter Association Météo Centre Icône Chaîne Youtube Association Météo Centre Icône contact Association Météo Centre Icône Insta Association Météo Centre